M I D A S
Marine Information and Data Acquisition System
Tripno 2150 of the Zeeleeuw from 2011-07-25 06:42:10 to 2011-07-25 13:06:22
Back to CruiseResearch ActivitiesStationsMapUnderway DataData graphs

EquipmentUnitsComment
TimeDGPSUTC
LatitudeDGPSDM.mWGS84
LongitudeDGPSDM.mWGS84
HeadingGyrodeg 
SOGDGPSknotsSpeed over ground
COGDGPSdegCourse over ground
DepthEcho soundermeters200 kHz
Missing or incorrect values are displayed as -999
Navigation data collected by the RV Zeeleeuw from 2011-07-25 06:31:22 to 2011-07-25 13:19:12
Time Latitude Longitude Heading SOG COG Depth
2011-07-25 06:32:30 51°13.654 2°55.947 110.6 3.6 290 -999
2011-07-25 06:33:30 51°13.679 2°55.856 116.4 3.7 296 -999
2011-07-25 06:34:30 51°13.701 2°55.777 108.3 3.1 290 -999
2011-07-25 06:35:30 51°13.709 2°55.727 76 0.4 28 14.4
2011-07-25 06:36:30 51°13.712 2°55.735 29.2 0.9 207 14.1
2011-07-25 06:37:31 51°13.704 2°55.725 356.1 1.9 350 -999
2011-07-25 06:38:29 51°13.786 2°55.666 336.1 8.2 335 13.9
2011-07-25 06:39:29 51°13.93 2°55.555 336.3 10.2 336 13.6
2011-07-25 06:40:29 51°14.088 2°55.442 337.6 10.5 336 13.5
2011-07-25 06:41:30 51°14.25 2°55.315 334.7 11 332 13.5
2011-07-25 06:42:30 51°14.41 2°55.164 330.2 11.3 329 -999
2011-07-25 06:43:30 51°14.578 2°55.005 328.9 12.5 331 13.7
2011-07-25 06:44:29 51°14.754 2°54.839 323 12.5 327 13.5
2011-07-25 06:45:28 51°14.913 2°54.635 310.7 12.3 315 13.3
2011-07-25 06:46:27 51°15.072 2°54.43 315.8 12.7 319 13.8
2011-07-25 06:47:27 51°15.23 2°54.213 316.9 12.5 321 15
2011-07-25 06:48:27 51°15.404 2°54.029 322.7 12.6 327 14.4
2011-07-25 06:49:27 51°15.572 2°53.832 320.8 12.5 325 13.9
2011-07-25 06:50:27 51°15.733 2°53.629 312 12.3 315 14.7
2011-07-25 06:51:27 51°15.899 2°53.433 328.2 12.7 333 14.1
2011-07-25 06:52:26 51°16.09 2°53.3 332.5 12.8 336 14.5
2011-07-25 06:53:26 51°16.275 2°53.137 324.4 12.8 329 14.2
2011-07-25 06:54:27 51°16.454 2°52.955 321 12.4 326 14.5
2011-07-25 06:55:26 51°16.639 2°52.802 333.4 12.9 338 13.7
2011-07-25 06:56:27 51°16.835 2°52.659 328.7 12.8 332 12
2011-07-25 06:57:26 51°17.019 2°52.501 331.3 12.7 337 12.1
2011-07-25 06:58:26 51°17.218 2°52.38 334.4 12.7 337 13.3
2011-07-25 06:59:26 51°17.422 2°52.284 345.8 13 349 12.6
2011-07-25 07:00:26 51°17.635 2°52.214 347.6 13.1 351 13.3
2011-07-25 07:01:26 51°17.848 2°52.149 343.7 12.9 347 13.2
2011-07-25 07:02:26 51°18.058 2°52.072 345.1 13.2 350 12.9
2011-07-25 07:03:27 51°18.278 2°52.057 357.1 13.2 -999 13.3
2011-07-25 07:04:26 51°18.493 2°52.048 354.3 13.1 359 13
2011-07-25 07:05:26 51°18.706 2°52.04 355.7 12.9 358 15.1
2011-07-25 07:06:26 51°18.922 2°52.027 358 13.2 1 15.9
2011-07-25 07:07:26 51°19.144 2°52.05 0.4 13.5 3 16.2
2011-07-25 07:08:26 51°19.365 2°52.056 357.4 13.1 1 17.9
2011-07-25 07:09:26 51°19.588 2°52.075 1.7 13.4 4 17.6
2011-07-25 07:10:26 51°19.809 2°52.085 358 13.2 1 18.6
2011-07-25 07:11:26 51°20.031 2°52.092 358.6 13.3 1 18.4
2011-07-25 07:12:26 51°20.253 2°52.105 0.1 13.4 2 16.2
2011-07-25 07:13:26 51°20.472 2°52.112 355.6 13.1 358 16.2
2011-07-25 07:14:26 51°20.686 2°52.095 355.7 12.9 359 15.9
2011-07-25 07:15:26 51°20.903 2°52.098 356.2 13.2 359 16.8
2011-07-25 07:16:26 51°21.121 2°52.083 354.9 13.1 358 18.6
2011-07-25 07:17:26 51°21.342 2°52.088 359 13.3 1 21.5
2011-07-25 07:18:26 51°21.563 2°52.084 354.4 13.3 357 23.8
2011-07-25 07:19:26 51°21.784 2°52.074 357.2 13.3 -999 25.6
2011-07-25 07:20:26 51°22.007 2°52.081 356.9 13.1 359 26.3
2011-07-25 07:21:26 51°22.23 2°52.07 355 13.5 -999 25.3
2011-07-25 07:22:26 51°22.454 2°52.069 356 13.5 -999 25.5
2011-07-25 07:23:26 51°22.677 2°52.07 357.4 13.5 1 24.8
2011-07-25 07:24:27 51°22.907 2°52.079 357.9 13.2 1 27
2011-07-25 07:25:26 51°23.124 2°52.066 354.7 13.3 359 24.9
2011-07-25 07:26:26 51°23.346 2°52.06 357.4 13.5 1 21.1
2011-07-25 07:27:26 51°23.569 2°52.06 356.7 13.3 358 16.6
2011-07-25 07:28:26 51°23.789 2°52.035 353.6 13.3 356 19.1
2011-07-25 07:29:26 51°24.009 2°52.026 357.3 13.2 -999 18.8
2011-07-25 07:30:26 51°24.225 2°52.012 353.1 13.1 355 19.5
2011-07-25 07:31:26 51°24.44 2°51.989 354.9 13.1 357 21.4
2011-07-25 07:32:26 51°24.662 2°51.981 358 13.6 -999 23.8
2011-07-25 07:33:26 51°24.881 2°51.974 357.9 13.3 -999 23.8
2011-07-25 07:34:26 51°25.105 2°51.993 2.3 13.1 4 24.9
2011-07-25 07:35:26 51°25.327 2°52.002 358.1 13.1 -999 26.7
2011-07-25 07:36:27 51°25.553 2°52.019 2.2 13.4 4 30.7
2011-07-25 07:37:27 51°25.776 2°52.036 359.9 13.4 1 28.9
2011-07-25 07:38:26 51°25.995 2°52.036 358.9 13.4 1 27.8
2011-07-25 07:39:26 51°26.221 2°52.049 0.1 13.6 1 27
2011-07-25 07:40:26 51°26.442 2°52.059 1.5 13.3 3 27.3
2011-07-25 07:41:26 51°26.606 2°52.08 3 7.2 7 28.4
2011-07-25 07:42:26 51°26.689 2°52.059 311.7 4.2 326 29.7
2011-07-25 07:43:26 51°26.718 2°51.978 264.8 2.9 286 29
2011-07-25 07:44:26 51°26.735 2°51.973 240.9 1.3 28 27.9
2011-07-25 07:45:26 51°26.757 2°51.988 246.8 1.8 13 27.6
2011-07-25 07:46:26 51°26.774 2°52.003 246.8 0.7 47 28.4
2011-07-25 07:47:27 51°26.774 2°52.003 214.6 0.4 242 28.2
2011-07-25 07:48:26 51°26.771 2°52.002 212.4 0.5 125 28.5
2011-07-25 07:49:26 51°26.772 2°52.004 211.1 0.3 54 27.9
2011-07-25 07:50:26 51°26.773 2°52.007 212.7 0.1 153 28.2
2011-07-25 07:51:26 51°26.773 2°52.006 215.1 0.2 168 28.2
2011-07-25 07:52:27 51°26.772 2°52.004 214.7 0.1 95 28.1
2011-07-25 07:53:26 51°26.773 2°52.003 214.9 0.3 316 28.3
2011-07-25 07:54:26 51°26.773 2°52.006 213.1 0.3 115 28.2
2011-07-25 07:55:26 51°26.773 2°52.005 212.3 0.3 289 28.4
2011-07-25 07:56:26 51°26.773 2°52.005 211.8 0.4 120 28.5
2011-07-25 07:57:26 51°26.772 2°52.005 211.8 0.1 149 27.7
2011-07-25 07:58:26 51°26.772 2°52.006 213 0.1 307 28.2
2011-07-25 07:59:26 51°26.772 2°52.006 215.6 0.3 129 28.5
2011-07-25 08:00:26 51°26.773 2°52.005 215 0.1 4 28.3
2011-07-25 08:01:26 51°26.773 2°52.005 214.2 0.2 129 28.4
2011-07-25 08:02:26 51°26.773 2°52.007 213 0.1 105 28
2011-07-25 08:03:26 51°26.772 2°52.007 212.4 0.3 143 28.2
2011-07-25 08:04:26 51°26.771 2°52.01 212.3 0.4 116 28.4
2011-07-25 08:05:26 51°26.77 2°52.01 215.9 0.2 309 28.1
2011-07-25 08:06:26 51°26.772 2°52.009 220 0.4 299 27.9
2011-07-25 08:07:26 51°26.772 2°52.007 221.5 0.2 145 28.4
2011-07-25 08:08:26 51°26.773 2°52.005 219.2 0.2 147 28.2
2011-07-25 08:09:27 51°26.773 2°52.006 216.4 0.3 125 28.4
2011-07-25 08:10:26 51°26.773 2°52.007 215.9 0.1 301 27.8
2011-07-25 08:11:26 51°26.772 2°52.008 215.7 0.2 300 28.5
2011-07-25 08:12:26 51°26.771 2°52.009 216.6 0.1 151 27.9
2011-07-25 08:13:26 51°26.771 2°52.009 218.4 0.3 121 28.1
2011-07-25 08:14:26 51°26.771 2°52.01 220.2 0.2 131 27.9
2011-07-25 08:15:26 51°26.771 2°52.009 218.2 0.1 193 28.1
2011-07-25 08:16:26 51°26.772 2°52.007 218.7 0.1 326 28.1
2011-07-25 08:17:26 51°26.772 2°52.007 218.6 0.2 88 27.9
2011-07-25 08:18:26 51°26.773 2°52.007 216.3 0.3 309 27.7
2011-07-25 08:19:26 51°26.772 2°52.007 217 0.2 329 28
2011-07-25 08:20:27 51°26.771 2°52.008 217.1 -999 126 28.2
2011-07-25 08:21:26 51°26.772 2°52.008 219 0.1 83 28.2
2011-07-25 08:22:26 51°26.772 2°52.006 220.5 0.3 304 28.2
2011-07-25 08:23:26 51°26.772 2°52.004 219.7 0.2 299 27.8
2011-07-25 08:24:26 51°26.773 2°52.004 217.4 0.1 189 28.2
2011-07-25 08:25:26 51°26.773 2°52.004 214.9 0.1 288 27.7
2011-07-25 08:26:26 51°26.771 2°52.005 213.2 0.3 148 28.2
2011-07-25 08:27:27 51°26.764 2°52 211.3 0.6 192 28.2
2011-07-25 08:28:26 51°26.751 2°51.99 211.2 1.1 218 27.7
2011-07-25 08:29:26 51°26.738 2°51.979 211.1 0.6 214 27.5
2011-07-25 08:30:26 51°26.733 2°51.975 211.6 0.2 175 28
2011-07-25 08:31:26 51°26.732 2°51.976 216.8 0.2 154 28.2
2011-07-25 08:32:26 51°26.734 2°51.969 237.6 0.9 263 28.2
2011-07-25 08:33:26 51°26.761 2°51.916 312.2 4.1 340 27.3
2011-07-25 08:34:26 51°26.865 2°51.896 346.3 9.2 352 24.7
2011-07-25 08:35:26 51°27.048 2°51.823 341.1 12.5 346 20
2011-07-25 08:36:26 51°27.254 2°51.741 342.9 12.3 347 24.4
2011-07-25 08:37:26 51°27.459 2°51.671 345.3 13 350 21.3
2011-07-25 08:38:26 51°27.675 2°51.603 343.1 13.5 347 22.6
2011-07-25 08:39:26 51°27.892 2°51.52 342.8 13.2 348 25.4
2011-07-25 08:40:26 51°28.112 2°51.458 346.3 13.5 350 27.1
2011-07-25 08:41:26 51°28.33 2°51.384 340.7 13.3 344 28.4
2011-07-25 08:42:26 51°28.547 2°51.397 18.7 13.6 24 30.2
2011-07-25 08:43:26 51°28.734 2°51.614 38.7 14 39 30.8
2011-07-25 08:44:26 51°28.919 2°51.844 39.3 14.2 38 31.8
2011-07-25 08:45:26 51°29.109 2°52.06 29.4 13.9 29 33.2
2011-07-25 08:46:26 51°29.324 2°52.193 14.8 13.8 16 31.5
2011-07-25 08:47:26 51°29.543 2°52.306 17 13.7 20 32
2011-07-25 08:48:26 51°29.763 2°52.415 15.3 13.8 14 31.7
2011-07-25 08:49:26 51°29.981 2°52.527 16.6 13.7 18 30.7
2011-07-25 08:50:26 51°30.2 2°52.644 15.7 14.1 19 31.9
2011-07-25 08:51:26 51°30.424 2°52.735 7.1 13.6 10 27.9
2011-07-25 08:52:26 51°30.646 2°52.789 0.1 12.9 4 25.6
2011-07-25 08:53:26 51°30.82 2°52.782 350 7.8 358 21.7
2011-07-25 08:54:26 51°30.928 2°52.787 355.7 5.9 5 21.7
2011-07-25 08:55:26 51°31.028 2°52.78 337.2 6.1 347 17.8
2011-07-25 08:56:26 51°31.122 2°52.717 322.4 6.3 334 21.3
2011-07-25 08:57:26 51°31.22 2°52.647 325.3 6 339 21.9
2011-07-25 08:58:26 51°31.273 2°52.587 277.3 2.8 306 23.5
2011-07-25 08:59:26 51°31.28 2°52.548 234.5 0.7 346 23.6
2011-07-25 09:00:26 51°31.294 2°52.553 227.6 1.2 11 23.7
2011-07-25 09:01:26 51°31.31 2°52.563 222.5 1 39 23.7
2011-07-25 09:02:26 51°31.314 2°52.571 205.7 0.4 138 23.3
2011-07-25 09:03:26 51°31.308 2°52.576 200.4 0.1 239 23.3
2011-07-25 09:04:26 51°31.306 2°52.58 206.2 0.2 285 22.8
2011-07-25 09:05:26 51°31.306 2°52.581 214.6 0.1 122 23.2
2011-07-25 09:06:26 51°31.308 2°52.579 217.8 0.4 298 23.1
2011-07-25 09:07:26 51°31.31 2°52.575 219.2 0.2 321 23.1
2011-07-25 09:08:26 51°31.311 2°52.574 216.1 0.2 320 23.4
2011-07-25 09:09:26 51°31.312 2°52.574 213.9 0.6 119 23.6
2011-07-25 09:10:26 51°31.311 2°52.574 211.1 0.2 111 23.3
2011-07-25 09:11:26 51°31.311 2°52.576 210.9 0.1 341 23.5
2011-07-25 09:12:26 51°31.311 2°52.575 214.5 0.4 307 23
2011-07-25 09:13:26 51°31.311 2°52.575 214.2 0.1 333 23.4
2011-07-25 09:14:26 51°31.311 2°52.576 211.6 -999 24 23.4
2011-07-25 09:15:26 51°31.311 2°52.575 213.5 0.3 101 23.1
2011-07-25 09:16:26 51°31.311 2°52.574 214.1 0.2 87 23.1
2011-07-25 09:17:26 51°31.311 2°52.574 212 0.3 310 23.3
2011-07-25 09:18:26 51°31.312 2°52.574 212 -999 92 23.7
2011-07-25 09:19:26 51°31.312 2°52.573 211 0.5 293 22.8
2011-07-25 09:20:26 51°31.311 2°52.573 209.8 0.2 281 23.1
2011-07-25 09:21:26 51°31.31 2°52.575 209.8 0.2 135 23.4
2011-07-25 09:22:26 51°31.311 2°52.576 211.9 0.4 298 22.8
2011-07-25 09:23:26 51°31.311 2°52.574 214 0.2 265 22.6
2011-07-25 09:24:26 51°31.311 2°52.574 213 0.1 184 23
2011-07-25 09:25:26 51°31.311 2°52.574 213.5 0.1 100 23
2011-07-25 09:26:26 51°31.312 2°52.574 214 0.1 288 23.2
2011-07-25 09:27:26 51°31.311 2°52.573 212.7 0.1 281 23.1
2011-07-25 09:28:26 51°31.312 2°52.574 211.8 0.1 295 23
2011-07-25 09:29:26 51°31.311 2°52.574 212.1 0.2 261 23.2
2011-07-25 09:30:26 51°31.311 2°52.575 211.6 -999 42 23.1
2011-07-25 09:31:26 51°31.311 2°52.575 212.1 0.2 235 23.2
2011-07-25 09:32:26 51°31.31 2°52.575 212.5 0.1 217 23.4
2011-07-25 09:33:26 51°31.31 2°52.575 212.9 0.3 110 23
2011-07-25 09:34:26 51°31.311 2°52.576 213.2 0.2 120 22.6
2011-07-25 09:35:26 51°31.311 2°52.575 213.6 0.2 133 23.1
2011-07-25 09:36:26 51°31.311 2°52.575 214.3 0.1 93 23
2011-07-25 09:37:26 51°31.313 2°52.572 215.6 0.3 309 22.8
2011-07-25 09:38:26 51°31.312 2°52.572 212.2 0.4 126 23.3
2011-07-25 09:39:26 51°31.311 2°52.574 206.9 0.2 302 23.1
2011-07-25 09:40:26 51°31.31 2°52.577 207.8 0.2 263 22.7
2011-07-25 09:41:26 51°31.31 2°52.576 215.7 0.1 330 22.9
2011-07-25 09:42:26 51°31.311 2°52.575 217.1 0.4 308 22.7
2011-07-25 09:43:26 51°31.312 2°52.574 214.8 0.2 168 22.8
2011-07-25 09:44:26 51°31.312 2°52.572 212 0.2 313 23.1
2011-07-25 09:45:26 51°31.312 2°52.574 207.9 0.3 302 22.7
2011-07-25 09:46:26 51°31.311 2°52.574 209 0.2 260 22.9
2011-07-25 09:47:26 51°31.305 2°52.571 211.9 0.6 177 23.4
2011-07-25 09:48:26 51°31.299 2°52.562 215.1 0.4 211 23.4
2011-07-25 09:49:26 51°31.294 2°52.551 217.4 0.5 261 23.3
2011-07-25 09:50:26 51°31.293 2°52.549 216.3 0.3 335 23.9
2011-07-25 09:51:26 51°31.297 2°52.552 218.2 0.4 58 23.7
2011-07-25 09:52:26 51°31.302 2°52.555 221.1 0.4 6 23.2
2011-07-25 09:53:26 51°31.305 2°52.553 220.7 -999 71 23.6
2011-07-25 09:54:26 51°31.305 2°52.547 217 0.4 273 23.2
2011-07-25 09:55:26 51°31.297 2°52.541 210.7 1 225 23.2
2011-07-25 09:56:26 51°31.263 2°52.505 219.1 4.1 224 21.1
2011-07-25 09:57:26 51°31.189 2°52.393 223.4 7.7 221 22.5
2011-07-25 09:58:26 51°31.075 2°52.23 221 10.7 219 20.5
2011-07-25 09:59:26 51°30.933 2°52.032 222.2 11.6 217 23
2011-07-25 10:00:26 51°30.787 2°51.829 220.4 11.5 216 22.3
2011-07-25 10:01:26 51°30.64 2°51.633 221.5 11.3 222 22.1
2011-07-25 10:02:26 51°30.494 2°51.433 220.3 11.9 221 22.5
2011-07-25 10:03:26 51°30.347 2°51.24 217.5 11.8 217 22.4
2011-07-25 10:04:26 51°30.2 2°51.041 219.6 11.7 221 25.7
2011-07-25 10:05:26 51°30.049 2°50.844 218.9 11.8 218 27.3
2011-07-25 10:06:26 51°29.899 2°50.647 221.9 11.5 221 29
2011-07-25 10:07:26 51°29.75 2°50.451 219.6 11.6 223 29.9
2011-07-25 10:08:26 51°29.601 2°50.251 220.8 11.6 220 31.1
2011-07-25 10:09:26 51°29.452 2°50.049 219.3 11.8 217 31.5
2011-07-25 10:10:26 51°29.301 2°49.851 220 12 224 31.7
2011-07-25 10:11:26 51°29.151 2°49.65 221.5 11.8 219 28.9
2011-07-25 10:12:26 51°29 2°49.448 220.7 11.8 217 28.5
2011-07-25 10:13:26 51°28.849 2°49.25 220.7 11.9 217 28.3
2011-07-25 10:14:26 51°28.7 2°49.052 221.9 11.7 223 30
2011-07-25 10:15:26 51°28.55 2°48.854 218.4 11.8 214 31.5
2011-07-25 10:16:26 51°28.399 2°48.66 219.8 11.5 219 27.4
2011-07-25 10:17:26 51°28.252 2°48.455 221.5 12 224 26.9
2011-07-25 10:18:26 51°28.103 2°48.254 219.6 11.9 216 32.1
2011-07-25 10:19:26 51°27.951 2°48.058 220.1 11.5 218 28.5
2011-07-25 10:20:26 51°27.8 2°47.859 219 12.2 222 28.6
2011-07-25 10:21:26 51°27.65 2°47.66 220.9 11.6 218 28.8
2011-07-25 10:22:26 51°27.5 2°47.454 219.3 12.1 218 30.3
2011-07-25 10:23:26 51°27.35 2°47.248 219.9 12.2 216 28.2
2011-07-25 10:24:26 51°27.197 2°47.046 218.8 12.1 221 29.3
2011-07-25 10:25:26 51°27.046 2°46.837 221.5 12.3 221 30.7
2011-07-25 10:26:26 51°26.896 2°46.625 221.5 12.1 220 29.7
2011-07-25 10:27:26 51°26.745 2°46.414 219 12 219 25.6
2011-07-25 10:28:26 51°26.592 2°46.208 219.3 10.8 223 28.5
2011-07-25 10:29:26 51°26.494 2°46.063 221.8 6.7 221 27.3
2011-07-25 10:30:26 51°26.422 2°45.969 218.6 4.9 217 26.8
2011-07-25 10:31:26 51°26.364 2°45.893 219.8 4 217 27.3
2011-07-25 10:32:26 51°26.313 2°45.825 219.3 3.9 225 27
2011-07-25 10:33:26 51°26.266 2°45.76 221.4 3.7 219 26.7
2011-07-25 10:34:26 51°26.222 2°45.691 222 3.7 218 26.3
2011-07-25 10:35:26 51°26.177 2°45.626 220.1 3.7 215 27.6
2011-07-25 10:36:26 51°26.129 2°45.564 218.3 3.7 217 27.3
2011-07-25 10:37:26 51°26.081 2°45.501 219.4 3.7 218 27.8
2011-07-25 10:38:26 51°26.034 2°45.438 220.3 3.6 222 24.9
2011-07-25 10:39:26 51°25.989 2°45.372 222.2 3.8 228 25.5
2011-07-25 10:40:26 51°25.935 2°45.291 222.1 5.1 221 26.8
2011-07-25 10:41:26 51°25.866 2°45.192 219.4 5.9 216 26.4
2011-07-25 10:42:26 51°25.789 2°45.096 218.4 5.9 220 24.9
2011-07-25 10:43:26 51°25.713 2°44.995 220.5 5.9 223 25.7
2011-07-25 10:44:26 51°25.637 2°44.896 220.6 6 216 25.8
2011-07-25 10:45:26 51°25.562 2°44.796 221.4 5.9 222 25.3
2011-07-25 10:46:26 51°25.488 2°44.691 222.2 5.9 227 24.6
2011-07-25 10:47:26 51°25.413 2°44.589 219.5 5.9 216 22.6
2011-07-25 10:48:26 51°25.336 2°44.494 217.8 5.9 215 23.1
2011-07-25 10:49:26 51°25.259 2°44.398 220.5 5.8 224 24.2
2011-07-25 10:50:26 51°25.185 2°44.299 221.8 5.8 225 24.7
2011-07-25 10:51:26 51°25.111 2°44.202 220.1 5.8 218 24.1
2011-07-25 10:52:26 51°25.036 2°44.102 220.4 5.8 226 23.1
2011-07-25 10:53:26 51°24.959 2°44.006 218.9 5.9 216 21.8
2011-07-25 10:54:26 51°24.883 2°43.909 220.1 5.9 220 20.3
2011-07-25 10:55:26 51°24.808 2°43.81 222 5.7 223 22.3
2011-07-25 10:56:26 51°24.736 2°43.712 221 4.9 222 22.6
2011-07-25 10:57:26 51°24.683 2°43.658 204.3 3 191 21.5
2011-07-25 10:58:26 51°24.659 2°43.666 160.7 0.6 81 22.6
2011-07-25 10:59:26 51°24.664 2°43.678 139.2 0.6 78 20.8
2011-07-25 11:00:26 51°24.669 2°43.693 132.7 0.6 73 22.1
2011-07-25 11:01:26 51°24.672 2°43.712 128.5 0.8 76 21.1
2011-07-25 11:02:26 51°24.675 2°43.734 129 0.7 90 24
2011-07-25 11:03:26 51°24.676 2°43.757 136.9 1.1 77 22.6
2011-07-25 11:04:26 51°24.676 2°43.778 143.1 0.7 93 21.5
2011-07-25 11:05:26 51°24.675 2°43.799 151.5 1.2 126 23.2
2011-07-25 11:06:26 51°24.648 2°43.807 204.8 2.1 200 20.7
2011-07-25 11:07:26 51°24.629 2°43.752 267.2 2.3 267 25.9
2011-07-25 11:08:26 51°24.646 2°43.709 306 1.9 332 24.2
2011-07-25 11:09:26 51°24.664 2°43.694 319.1 0.6 50 21.7
2011-07-25 11:10:28 51°24.667 2°43.708 340.9 0.6 78 21.2
2011-07-25 11:11:26 51°24.668 2°43.721 352.1 0.5 77 23.4
2011-07-25 11:12:26 51°24.669 2°43.734 356.8 0.5 79 24.1
2011-07-25 11:13:26 51°24.672 2°43.748 3.1 0.4 70 23.3
2011-07-25 11:14:26 51°24.674 2°43.761 8.6 0.5 83 22.8
2011-07-25 11:15:26 51°24.675 2°43.775 14.9 0.8 81 21.6
2011-07-25 11:16:26 51°24.688 2°43.789 1 2.1 -999 23.9
2011-07-25 11:17:26 51°24.723 2°43.756 294.5 2.7 297 21.2
2011-07-25 11:18:26 51°24.722 2°43.698 238.1 2 225 24.4
2011-07-25 11:19:26 51°24.686 2°43.679 189.4 2.4 183 22.6
2011-07-25 11:20:26 51°24.662 2°43.685 187.7 0.5 86 20.8
2011-07-25 11:21:26 51°24.668 2°43.7 181 0.8 69 21.9
2011-07-25 11:22:30 51°24.673 2°43.715 168.5 0.7 77 20.9
2011-07-25 11:23:29 51°24.675 2°43.729 160.6 0.6 90 -999
2011-07-25 11:24:28 51°24.675 2°43.744 158.5 0.6 99 23.1
2011-07-25 11:25:26 51°24.674 2°43.76 163.6 0.6 96 22.8
2011-07-25 11:26:26 51°24.671 2°43.775 168.5 0.6 107 21.5
2011-07-25 11:27:26 51°24.667 2°43.791 169.9 0.6 109 20.7
2011-07-25 11:28:26 51°24.652 2°43.8 193.9 1.5 178 21
2011-07-25 11:29:26 51°24.626 2°43.773 243 2.2 237 25.1
2011-07-25 11:30:26 51°24.632 2°43.711 301.8 2.5 315 22.5
2011-07-25 11:31:26 51°24.658 2°43.686 336.9 1.4 346 20.6
2011-07-25 11:32:26 51°24.669 2°43.691 358.5 0.4 68 22.3
2011-07-25 11:33:26 51°24.671 2°43.704 14.4 0.6 89 20.5
2011-07-25 11:34:26 51°24.671 2°43.716 28.7 0.4 86 21
2011-07-25 11:35:26 51°24.671 2°43.731 36.3 0.9 97 24.3
2011-07-25 11:36:26 51°24.672 2°43.745 37.2 0.5 102 23.3
2011-07-25 11:37:26 51°24.671 2°43.76 36.7 0.5 96 22.9
2011-07-25 11:38:26 51°24.669 2°43.774 34.6 0.5 107 22.1
2011-07-25 11:39:26 51°24.668 2°43.788 31.8 0.8 100 20.9
2011-07-25 11:40:26 51°24.669 2°43.802 18.2 0.4 71 23.4
2011-07-25 11:41:26 51°24.671 2°43.814 4.4 0.2 40 24.5
2011-07-25 11:42:26 51°24.673 2°43.825 354.8 0.4 69 25.2
2011-07-25 11:43:26 51°24.677 2°43.836 346.6 0.3 37 25.7
2011-07-25 11:44:26 51°24.686 2°43.843 331.1 0.6 7 24.9
2011-07-25 11:45:26 51°24.698 2°43.829 299.4 2 294 25.1
2011-07-25 11:46:26 51°24.714 2°43.739 283.5 4.5 285 22.3
2011-07-25 11:47:26 51°24.718 2°43.638 247.7 3 238 20.9
2011-07-25 11:48:26 51°24.698 2°43.594 224.6 1.2 218 23.8
2011-07-25 11:49:26 51°24.687 2°43.583 214.6 0.5 203 23.5
2011-07-25 11:50:26 51°24.679 2°43.579 213.7 0.5 196 22.7
2011-07-25 11:51:26 51°24.669 2°43.575 205.7 1.5 203 22.7
2011-07-25 11:52:26 51°24.632 2°43.585 145.5 2.7 142 21.4
2011-07-25 11:53:26 51°24.621 2°43.652 76.8 2.9 73 24.5
2011-07-25 11:54:26 51°24.654 2°43.705 31.1 2.4 29 23.9
2011-07-25 11:55:26 51°24.668 2°43.722 18.4 0.2 88 23.5
2011-07-25 11:56:26 51°24.67 2°43.729 20 0.4 87 23.6
2011-07-25 11:57:26 51°24.67 2°43.738 22.1 0.4 95 23.8
2011-07-25 11:58:26 51°24.669 2°43.747 23.3 0.3 113 23.1
2011-07-25 11:59:26 51°24.667 2°43.754 24 0.7 116 23.3
2011-07-25 12:00:26 51°24.663 2°43.759 20 0.3 137 23
2011-07-25 12:01:26 51°24.659 2°43.765 16.8 0.2 153 22.4
2011-07-25 12:02:26 51°24.654 2°43.771 16.8 0.4 130 22.8
2011-07-25 12:03:26 51°24.649 2°43.778 19.6 0.6 137 23.6
2011-07-25 12:04:26 51°24.642 2°43.783 24.3 0.6 141 22.9
2011-07-25 12:05:26 51°24.636 2°43.788 29 0.4 158 23.5
2011-07-25 12:06:26 51°24.629 2°43.793 33 0.5 161 23.1
2011-07-25 12:07:26 51°24.628 2°43.803 35.2 1.4 50 22.5
2011-07-25 12:08:26 51°24.655 2°43.858 63.2 3.4 67 25.3
2011-07-25 12:09:26 51°24.65 2°43.957 114.4 4.2 121 24.4
2011-07-25 12:10:26 51°24.585 2°44.037 150.8 6.5 147 25.3
2011-07-25 12:11:26 51°24.466 2°44.154 146 9.9 149 23.5
2011-07-25 12:12:26 51°24.308 2°44.313 147.2 12.1 150 22.7
2011-07-25 12:13:26 51°24.125 2°44.48 149.1 13 148 26.4
2011-07-25 12:14:26 51°23.941 2°44.659 146.4 13 147 25.7
2011-07-25 12:15:26 51°23.759 2°44.844 148.9 13.3 149 25.5
2011-07-25 12:16:26 51°23.563 2°44.985 155 13.1 156 27.1
2011-07-25 12:17:26 51°23.369 2°45.138 153 13.5 152 27.2
2011-07-25 12:18:26 51°23.178 2°45.298 150.6 12.8 152 26.1
2011-07-25 12:19:26 51°22.988 2°45.463 150.5 12.7 152 25.2
2011-07-25 12:20:26 51°22.795 2°45.616 150.7 12.7 152 24.6
2011-07-25 12:21:26 51°22.606 2°45.775 151 12.8 153 24
2011-07-25 12:22:26 51°22.416 2°45.933 150.6 12.4 154 19.3
2011-07-25 12:23:26 51°22.228 2°46.091 148 12.8 146 19.4
2011-07-25 12:24:26 51°22.047 2°46.272 147.3 12.9 149 20.9
2011-07-25 12:25:26 51°21.866 2°46.457 146.9 13.1 148 23.6
2011-07-25 12:26:26 51°21.682 2°46.627 147.9 12.8 151 24.8
2011-07-25 12:27:26 51°21.498 2°46.798 145.7 12.8 146 24.7
2011-07-25 12:28:26 51°21.333 2°47.007 136.7 12.6 142 23.5
2011-07-25 12:29:26 51°21.168 2°47.22 140.9 13.1 142 22.9
2011-07-25 12:30:26 51°20.998 2°47.42 140.2 12.6 144 19.7
2011-07-25 12:31:26 51°20.833 2°47.63 139.4 13 144 16.9
2011-07-25 12:32:26 51°20.666 2°47.832 139.9 12.7 141 19.2
2011-07-25 12:33:26 51°20.502 2°48.041 138.2 12.6 144 21
2011-07-25 12:34:26 51°20.335 2°48.248 140.2 12.9 141 22.2
2011-07-25 12:35:26 51°20.166 2°48.459 141.3 12.7 142 22.3
2011-07-25 12:36:26 51°19.995 2°48.662 140.3 13.2 145 21.9
2011-07-25 12:37:26 51°19.822 2°48.862 140.8 12.9 144 19.9
2011-07-25 12:38:26 51°19.652 2°49.065 139.8 12.7 146 17.2
2011-07-25 12:39:26 51°19.481 2°49.269 141.7 13.1 140 14.9
2011-07-25 12:40:26 51°19.318 2°49.477 139.6 12.6 144 13.5
2011-07-25 12:41:26 51°19.15 2°49.678 140.1 13.1 143 12.2
2011-07-25 12:42:26 51°18.986 2°49.873 137.4 12.6 140 11
2011-07-25 12:43:26 51°18.819 2°50.069 140.6 12.5 145 12.8
2011-07-25 12:44:26 51°18.648 2°50.257 140.2 12.8 146 14.2
2011-07-25 12:45:26 51°18.479 2°50.454 139.2 12.7 145 14
2011-07-25 12:46:26 51°18.308 2°50.651 141.1 12.8 145 13.4
2011-07-25 12:47:26 51°18.132 2°50.843 139.8 12 147 12.7
2011-07-25 12:48:26 51°17.965 2°51.053 135.4 12.7 134 11.6
2011-07-25 12:49:26 51°17.82 2°51.287 127.8 12.1 130 10.4
2011-07-25 12:50:26 51°17.68 2°51.526 129.1 12 132 9.8
2011-07-25 12:51:26 51°17.545 2°51.775 124.8 11.9 129 10
2011-07-25 12:52:26 51°17.411 2°52.028 122.9 12.4 131 10.7
2011-07-25 12:53:26 51°17.258 2°52.258 137.4 12.6 141 10.7
2011-07-25 12:54:26 51°17.094 2°52.469 137.8 13 144 9.6
2011-07-25 12:55:26 51°16.914 2°52.649 146.1 13.4 150 9.7
2011-07-25 12:56:26 51°16.729 2°52.806 148.2 12.2 151 10.3
2011-07-25 12:57:26 51°16.538 2°52.959 151.1 12.7 157 11.5
2011-07-25 12:58:26 51°16.345 2°53.102 149.6 12.8 155 11.7
2011-07-25 12:59:26 51°16.158 2°53.261 147.1 12.6 153 11.6
2011-07-25 13:00:26 51°15.967 2°53.411 150.9 12.8 155 11.2
2011-07-25 13:01:26 51°15.773 2°53.553 149.8 12.3 155 11.8
2011-07-25 13:02:26 51°15.581 2°53.699 151.6 12.8 153 11.7
2011-07-25 13:03:26 51°15.406 2°53.885 141.5 12.6 143 11.5
2011-07-25 13:04:26 51°15.25 2°54.104 133.8 12.4 139 11.9
2011-07-25 13:05:26 51°15.087 2°54.314 137.5 12.8 144 11.4
2011-07-25 13:06:26 51°14.92 2°54.513 139.1 12.3 146 11.3
2011-07-25 13:07:26 51°14.752 2°54.703 139.1 12.4 144 11.2
2011-07-25 13:08:26 51°14.583 2°54.897 139.2 12.2 145 11
2011-07-25 13:09:26 51°14.432 2°55.109 139.4 12 143 10.4
2011-07-25 13:10:27 51°14.274 2°55.288 144.2 10.7 147 10.8
2011-07-25 13:11:26 51°14.148 2°55.395 154.1 7.9 154 10.9
2011-07-25 13:12:26 51°14.031 2°55.482 154 8 154 10.9
2011-07-25 13:13:26 51°13.911 2°55.57 155.2 7.2 156 11
2011-07-25 13:14:27 51°13.811 2°55.649 148.9 6.3 148 11
2011-07-25 13:15:28 51°13.737 2°55.747 133.6 5.4 133 11.3
2011-07-25 13:16:26 51°13.682 2°55.85 129.5 4.9 130 9.5
2011-07-25 13:17:26 51°13.641 2°55.943 114.6 3.6 114 10.4
2011-07-25 13:18:26 51°13.632 2°56.012 96.2 0.8 101 7.3